createdAt,value
2019-05-11T00:01:21.954Z,59.60
2019-05-11T00:06:23.587Z,59.66
2019-05-11T00:11:25.250Z,59.66
2019-05-11T00:16:26.806Z,59.81
2019-05-11T00:21:28.390Z,59.90
2019-05-11T00:26:30.032Z,59.98
2019-05-11T00:31:31.570Z,60.01
2019-05-11T00:36:33.112Z,60.28
2019-05-11T00:41:34.786Z,60.25
2019-05-11T00:46:36.408Z,60.31
2019-05-11T00:51:37.939Z,60.44
2019-05-11T00:56:39.515Z,60.51
2019-05-11T01:01:41.035Z,60.65
2019-05-11T01:06:42.568Z,60.75
2019-05-11T01:11:44.223Z,60.92
2019-05-11T01:16:45.747Z,61.16
2019-05-11T01:21:47.376Z,60.97
2019-05-11T01:26:48.937Z,61.07
2019-05-11T01:31:50.514Z,61.50
2019-05-11T01:36:52.042Z,61.84
2019-05-11T01:41:53.626Z,61.79
2019-05-11T01:46:55.190Z,61.36
2019-05-11T01:51:56.766Z,61.32
2019-05-11T01:56:58.379Z,61.38
2019-05-11T02:01:59.915Z,61.47
2019-05-11T02:07:01.571Z,61.60
2019-05-11T02:12:03.344Z,61.67
2019-05-11T02:17:04.886Z,61.88
2019-05-11T02:22:06.540Z,61.97
2019-05-11T02:27:08.074Z,62.04
2019-05-11T02:32:09.616Z,62.05
2019-05-11T02:37:11.200Z,62.12
2019-05-11T02:42:12.778Z,62.16
2019-05-11T02:47:14.421Z,62.27
2019-05-11T02:52:16.052Z,62.28
2019-05-11T02:57:17.624Z,62.64
2019-05-11T03:02:19.169Z,62.97
2019-05-11T03:07:20.865Z,63.00
2019-05-11T03:12:22.431Z,62.94
2019-05-11T03:17:28.891Z,62.75
2019-05-11T03:22:30.442Z,62.64
2019-05-11T03:27:32.084Z,62.64
2019-05-11T03:32:33.732Z,62.89
2019-05-11T03:37:35.397Z,62.83
2019-05-11T03:42:36.921Z,62.92
2019-05-11T03:47:38.561Z,62.93
2019-05-11T03:52:41.542Z,63.00
2019-05-11T03:57:43.086Z,63.05
2019-05-11T04:02:44.617Z,63.08
2019-05-11T04:07:46.196Z,63.12
2019-05-11T04:12:47.769Z,63.25
2019-05-11T04:17:49.352Z,63.33
2019-05-11T04:22:50.913Z,63.35
2019-05-11T04:27:52.549Z,63.35
2019-05-11T04:32:54.096Z,63.33
2019-05-11T04:37:55.617Z,63.41
2019-05-11T04:42:57.154Z,63.43
2019-05-11T04:47:58.690Z,63.39
2019-05-11T04:53:00.257Z,63.58
2019-05-11T04:58:01.950Z,63.87
2019-05-11T05:03:03.500Z,63.62
2019-05-11T05:08:09.640Z,63.69
2019-05-11T05:13:10.880Z,63.60
2019-05-11T05:18:12.074Z,63.68
2019-05-11T05:23:13.734Z,63.70
2019-05-11T05:28:15.280Z,63.84
2019-05-11T05:33:16.822Z,63.84
2019-05-11T05:38:18.475Z,63.86
2019-05-11T05:43:27.394Z,63.93
2019-05-11T05:48:23.478Z,63.91
2019-05-11T05:53:25.039Z,63.92
2019-05-11T05:58:26.621Z,64.03
2019-05-11T06:03:28.179Z,64.14
2019-05-11T06:08:29.728Z,64.10
2019-05-11T06:13:44.700Z,64.07
2019-05-11T06:18:34.875Z,64.06
2019-05-11T06:23:36.423Z,64.12
2019-05-11T06:28:37.979Z,64.17
2019-05-11T06:33:39.524Z,64.12
2019-05-11T06:38:41.073Z,64.00
2019-05-11T06:43:42.676Z,63.98
2019-05-11T06:48:44.348Z,64.03
2019-05-11T06:53:45.924Z,64.07
2019-05-11T06:58:47.535Z,64.19
2019-05-11T07:03:49.115Z,64.25
2019-05-11T07:08:50.791Z,64.29
2019-05-11T07:13:52.356Z,64.42
2019-05-11T07:18:53.910Z,64.49
2019-05-11T07:23:55.590Z,64.54
2019-05-11T07:28:57.145Z,64.59
2019-05-11T07:33:58.893Z,64.59
2019-05-11T07:39:00.411Z,64.59
2019-05-11T07:44:01.943Z,64.70
2019-05-11T07:49:03.662Z,64.75
2019-05-11T07:54:05.190Z,64.79
2019-05-11T07:59:07.955Z,64.87
2019-05-11T08:04:09.804Z,65.00
2019-05-11T08:09:11.360Z,65.11
2019-05-11T08:14:12.947Z,65.22
2019-05-11T08:19:14.506Z,65.29
2019-05-11T08:51:24.506Z,66.06
2019-05-11T08:56:26.036Z,66.27
2019-05-11T09:01:28.660Z,66.38
2019-05-11T09:06:30.576Z,66.50
2019-05-11T09:11:32.264Z,66.62
2019-05-11T09:16:33.849Z,66.76
2019-05-11T09:21:35.415Z,66.88
2019-05-11T09:26:38.881Z,66.96
2019-05-11T09:31:40.424Z,67.11
2019-05-11T09:36:41.957Z,67.29
2019-05-11T09:41:43.493Z,67.42
2019-05-11T09:46:47.644Z,67.55
2019-05-11T09:51:48.576Z,67.61
2019-05-11T09:56:50.112Z,67.55
2019-05-11T10:01:51.721Z,67.58
2019-05-11T10:06:53.358Z,67.74
2019-05-11T10:11:54.883Z,67.85
2019-05-11T10:16:58.417Z,67.98
2019-05-11T10:21:59.935Z,68.09
2019-05-11T10:27:01.500Z,68.23
2019-05-11T10:32:03.146Z,68.29
2019-05-11T10:37:04.808Z,68.37
2019-05-11T10:42:08.526Z,68.30
2019-05-11T10:47:09.920Z,68.34
2019-05-11T10:52:11.470Z,68.50
2019-05-11T10:57:13.039Z,68.52
2019-05-11T11:02:14.578Z,68.60
2019-05-11T11:07:17.248Z,68.85
2019-05-11T11:12:19.585Z,69.00
2019-05-11T11:17:21.228Z,69.02
2019-05-11T11:22:38.995Z,69.14
2019-05-11T11:27:29.082Z,69.25
2019-05-11T11:32:30.532Z,69.40
2019-05-11T11:37:32.063Z,69.54
2019-05-11T11:42:33.815Z,69.61
2019-05-11T11:47:35.460Z,69.70
2019-05-11T11:52:38.299Z,69.83
2019-05-11T11:57:40.184Z,70.00
2019-05-11T12:02:41.734Z,70.07
2019-05-11T12:07:43.431Z,70.08
2019-05-11T12:18:02.035Z,70.33
2019-05-11T12:23:03.682Z,70.50
2019-05-11T12:28:05.367Z,70.46
2019-05-11T12:33:08.254Z,70.62
2019-05-11T12:38:09.967Z,70.60
2019-05-11T12:43:11.563Z,70.66
2019-05-11T12:48:13.198Z,70.78
2019-05-11T12:53:14.775Z,70.86
2019-05-11T12:58:18.232Z,70.85
2019-05-11T13:03:19.836Z,70.97
2019-05-11T13:08:21.476Z,70.95
2019-05-11T13:13:23.188Z,71.04
2019-05-11T13:18:24.735Z,70.91
2019-05-11T13:23:27.790Z,70.87
2019-05-11T13:28:29.652Z,70.96
2019-05-11T13:33:31.307Z,71.16
2019-05-11T13:38:33.019Z,71.18
2019-05-11T13:43:34.697Z,71.29
2019-05-11T13:48:38.503Z,71.29
2019-05-11T13:53:39.968Z,71.30
2019-05-11T13:58:41.621Z,71.49
2019-05-11T14:03:43.216Z,71.66
2019-05-11T14:08:44.784Z,71.66
2019-05-11T14:13:47.997Z,71.74
2019-05-11T14:18:49.826Z,71.70
2019-05-11T14:23:51.396Z,71.68
2019-05-11T14:28:52.967Z,71.68
2019-05-11T14:33:54.537Z,71.74
2019-05-11T14:38:57.793Z,71.88
2019-05-11T14:43:59.672Z,71.93
2019-05-11T14:49:01.322Z,72.01
2019-05-11T14:54:02.993Z,72.06
2019-05-11T14:59:04.651Z,71.95
2019-05-11T15:04:08.742Z,71.93
2019-05-11T15:09:09.662Z,72.05
2019-05-11T15:14:11.390Z,72.17
2019-05-11T15:19:12.930Z,72.26
2019-05-11T15:24:14.719Z,72.46
2019-05-11T15:29:18.096Z,72.37
2019-05-11T15:34:19.761Z,72.56
2019-05-11T15:39:21.320Z,72.71
2019-05-11T15:44:22.872Z,72.75
2019-05-11T15:49:24.527Z,72.78
2019-05-11T15:54:28.665Z,72.78
2019-05-11T15:59:30.652Z,72.76
2019-05-11T16:04:32.323Z,72.54
2019-05-11T16:09:33.896Z,72.58
2019-05-11T16:14:38.214Z,72.65
2019-05-11T16:19:41.075Z,72.70
2019-05-11T16:24:42.496Z,72.70
2019-05-11T16:29:44.083Z,72.88
2019-05-11T16:34:45.639Z,72.93
2019-05-11T16:39:49.418Z,73.08
2019-05-11T16:44:50.735Z,73.22
2019-05-11T16:49:52.282Z,73.23
2019-05-11T16:54:53.851Z,73.12
2019-05-11T16:59:55.396Z,73.21
2019-05-11T17:04:58.160Z,73.21
2019-05-11T17:09:59.826Z,73.30
2019-05-11T17:15:01.384Z,73.44
2019-05-11T17:20:04.003Z,73.35
2019-05-11T17:25:08.403Z,73.17
2019-05-11T17:30:10.275Z,73.13
2019-05-11T17:35:11.942Z,73.20
2019-05-11T17:40:13.727Z,73.32
2019-05-11T17:45:15.408Z,73.58
2019-05-11T17:50:19.148Z,73.50
2019-05-11T17:55:20.452Z,73.69
2019-05-11T18:00:22.132Z,73.73
2019-05-11T18:05:23.812Z,73.71
2019-05-11T18:10:25.352Z,73.42
2019-05-11T18:15:26.911Z,73.79
2019-05-11T18:20:28.835Z,73.86
2019-05-11T18:25:30.530Z,73.73
2019-05-11T18:30:32.194Z,73.86
2019-05-11T18:35:33.739Z,73.78
2019-05-11T18:40:35.315Z,73.97
2019-05-11T18:45:38.234Z,74.08
2019-05-11T18:50:40.045Z,74.12
2019-05-11T18:55:41.602Z,74.28
2019-05-11T19:00:43.167Z,74.17
2019-05-11T19:05:44.848Z,74.18
2019-05-11T19:10:48.727Z,74.04
2019-05-11T19:15:50.027Z,74.12
2019-05-11T19:20:51.624Z,74.12
2019-05-11T19:25:53.194Z,74.19
2019-05-11T19:30:54.867Z,74.35
2019-05-11T19:35:58.491Z,74.40
2019-05-11T19:40:59.903Z,74.28
2019-05-11T19:46:01.452Z,74.25
2019-05-11T19:51:07.733Z,74.44
2019-05-11T19:56:07.757Z,74.64
2019-05-11T20:01:09.503Z,74.59
2019-05-11T20:06:11.136Z,74.39
2019-05-11T20:11:12.786Z,74.26
2019-05-11T20:16:14.378Z,74.61
2019-05-11T20:21:20.237Z,74.78
2019-05-11T20:26:19.678Z,74.87
2019-05-11T20:31:21.244Z,74.57
2019-05-11T20:36:22.828Z,74.53
2019-05-11T20:41:24.546Z,74.60
2019-05-11T20:46:27.745Z,74.34
2019-05-11T20:51:36.728Z,74.14
2019-05-11T20:56:32.914Z,74.21
2019-05-11T21:01:34.500Z,74.61
2019-05-11T21:06:36.097Z,74.70
2019-05-11T21:11:37.667Z,74.44
2019-05-11T21:16:39.267Z,74.69
2019-05-11T21:21:50.054Z,74.77
2019-05-11T21:26:44.451Z,74.77
2019-05-11T21:31:48.503Z,74.83
2019-05-11T21:36:49.740Z,74.96
2019-05-11T21:41:51.323Z,74.52
2019-05-11T21:46:52.909Z,74.31
2019-05-11T21:52:04.238Z,74.25
2019-05-11T21:56:57.967Z,74.41
2019-05-11T22:01:59.728Z,74.56
2019-05-11T22:07:01.403Z,74.84
2019-05-11T22:12:03.090Z,74.62
2019-05-11T22:17:04.739Z,74.73
2019-05-11T22:22:19.077Z,74.63
2019-05-11T22:27:09.757Z,74.26
2019-05-11T22:32:11.324Z,74.21
2019-05-11T22:37:12.879Z,74.21
2019-05-11T22:42:14.466Z,74.31
2019-05-11T22:47:17.878Z,74.17
2019-05-11T22:52:32.698Z,74.17
2019-05-11T22:57:22.955Z,74.22
2019-05-11T23:02:24.508Z,74.13
2019-05-11T23:07:26.080Z,74.18
2019-05-11T23:12:28.516Z,74.23
2019-05-11T23:17:30.216Z,74.05
2019-05-11T23:22:31.907Z,74.37
2019-05-11T23:27:33.446Z,74.29
2019-05-11T23:32:35.005Z,74.25
2019-05-11T23:37:38.700Z,74.21
2019-05-11T23:42:40.312Z,74.56
2019-05-11T23:47:41.882Z,74.58
2019-05-11T23:52:43.450Z,74.67
2019-05-11T23:57:45.023Z,74.63
